createdAt,value
2016-12-17T00:00:33.693Z,668.49
2016-12-17T00:01:33.663Z,669.96
2016-12-17T00:02:33.612Z,671.02
2016-12-17T00:03:33.498Z,671.24
2016-12-17T00:04:33.598Z,669.8
2016-12-17T00:05:33.577Z,671.84
2016-12-17T00:06:33.541Z,673.27
2016-12-17T00:07:33.595Z,674.15
2016-12-17T00:08:33.809Z,674.75
2016-12-17T00:09:33.644Z,674.99
2016-12-17T00:10:33.608Z,675.67
2016-12-17T00:11:33.696Z,676.61
2016-12-17T00:12:33.735Z,678.37
2016-12-17T00:13:33.659Z,678.89
2016-12-17T00:14:33.663Z,680.08
2016-12-17T00:15:33.683Z,679.34
2016-12-17T00:16:33.693Z,682.03
2016-12-17T00:17:33.657Z,681.8
2016-12-17T00:18:33.800Z,683.48
2016-12-17T00:19:33.641Z,681.62
2016-12-17T00:20:34.959Z,682.52
2016-12-17T00:21:33.540Z,684.81
2016-12-17T00:22:33.650Z,684.25
2016-12-17T00:23:33.553Z,684.85
2016-12-17T00:24:33.700Z,685.52
2016-12-17T00:25:33.653Z,685.74
2016-12-17T00:26:33.605Z,685.06
2016-12-17T00:27:33.508Z,686
2016-12-17T00:28:34.291Z,687.04
2016-12-17T00:29:33.588Z,687.9
2016-12-17T00:30:33.692Z,687.9
2016-12-17T00:31:33.644Z,687.89
2016-12-17T00:32:33.665Z,687.49
2016-12-17T00:33:33.698Z,689.17
2016-12-17T00:34:33.715Z,689.35
2016-12-17T00:35:33.649Z,688.4
2016-12-17T00:36:33.550Z,687.7
2016-12-17T00:37:33.596Z,686.84
2016-12-17T00:38:33.540Z,687.71
2016-12-17T00:39:33.627Z,689.12
2016-12-17T00:40:33.590Z,688.09
2016-12-17T00:41:33.700Z,687.86
2016-12-17T00:42:33.599Z,685.76
2016-12-17T00:43:33.626Z,686.67
2016-12-17T00:44:33.765Z,686.88
2016-12-17T00:45:33.630Z,687.94
2016-12-17T00:46:33.637Z,687.43
2016-12-17T00:47:33.667Z,688.73
2016-12-17T00:48:33.768Z,686.51
2016-12-17T00:49:33.739Z,686.08
2016-12-17T00:50:33.661Z,688.29
2016-12-17T00:51:33.694Z,686.84
2016-12-17T00:52:33.570Z,684.51
2016-12-17T00:53:33.702Z,686.48
2016-12-17T00:54:33.663Z,687.33
2016-12-17T00:55:33.617Z,685.87
2016-12-17T00:56:33.741Z,685.23
2016-12-17T00:57:33.663Z,685.24
2016-12-17T00:58:33.672Z,686.09
2016-12-17T00:59:33.686Z,686.61
2016-12-17T01:00:33.796Z,684.86
2016-12-17T01:01:33.629Z,686.57
2016-12-17T01:02:33.723Z,686.62
2016-12-17T01:03:33.639Z,684.45
2016-12-17T01:04:33.604Z,685.01
2016-12-17T01:05:33.759Z,686.41
2016-12-17T01:06:33.889Z,686.13
2016-12-17T01:07:33.607Z,686.79
2016-12-17T01:08:33.782Z,686.77
2016-12-17T01:09:33.669Z,686.88
2016-12-17T01:10:33.648Z,685.01
2016-12-17T01:11:33.614Z,685.9
2016-12-17T01:12:33.623Z,687.02
2016-12-17T01:13:33.610Z,685.93
2016-12-17T01:14:33.686Z,686.49
2016-12-17T01:15:33.737Z,686.98
2016-12-17T01:16:33.800Z,686.99
2016-12-17T01:17:33.684Z,685.96
2016-12-17T01:18:33.684Z,686.75
2016-12-17T01:19:33.686Z,685.67
2016-12-17T01:20:33.766Z,686.43
2016-12-17T01:21:33.583Z,687.53
2016-12-17T01:22:33.725Z,687.76
2016-12-17T01:23:33.854Z,687.54
2016-12-17T01:24:43.765Z,687.41
2016-12-17T01:25:33.686Z,687.2
2016-12-17T01:26:33.648Z,687.75
2016-12-17T01:27:33.658Z,687.9
2016-12-17T01:28:33.785Z,689.05
2016-12-17T01:29:33.744Z,687.64
2016-12-17T01:30:33.667Z,689.07
2016-12-17T01:31:33.520Z,689.81
2016-12-17T01:32:33.755Z,688.49
2016-12-17T01:33:33.610Z,688.16
2016-12-17T01:34:33.813Z,689.55
2016-12-17T01:35:33.560Z,689.88
2016-12-17T01:36:33.674Z,690.06
2016-12-17T01:37:33.652Z,691.88
2016-12-17T01:38:33.712Z,691.17
2016-12-17T01:39:33.661Z,692.77
2016-12-17T01:40:33.619Z,692.79
2016-12-17T01:41:33.693Z,692.59
2016-12-17T01:42:33.672Z,693.54
2016-12-17T01:43:33.640Z,691.9
2016-12-17T01:44:33.834Z,692.15
2016-12-17T01:45:33.691Z,692.98
2016-12-17T01:46:33.744Z,694.1
2016-12-17T01:47:33.654Z,694.95
2016-12-17T01:48:33.711Z,695.76
2016-12-17T01:49:33.723Z,696.11
2016-12-17T01:50:33.752Z,696.47
2016-12-17T01:51:33.581Z,696.01
2016-12-17T01:52:33.749Z,696.34
2016-12-17T01:53:33.667Z,696.78
2016-12-17T01:54:33.740Z,696.46
2016-12-17T01:55:33.696Z,696.62
2016-12-17T01:56:33.717Z,697.18
2016-12-17T01:57:33.653Z,694.72
2016-12-17T01:58:33.636Z,696.36
2016-12-17T01:59:33.703Z,696.61
2016-12-17T02:00:33.717Z,696.8
2016-12-17T02:01:33.718Z,694.73
2016-12-17T02:02:33.720Z,693.96
2016-12-17T02:03:33.721Z,694.45
2016-12-17T02:04:33.719Z,694.39
2016-12-17T02:05:33.665Z,694.93
2016-12-17T02:06:33.832Z,695.57
2016-12-17T02:07:33.710Z,696.97
2016-12-17T02:08:33.745Z,696.48
2016-12-17T02:09:33.691Z,695.72
2016-12-17T02:10:33.646Z,695.18
2016-12-17T02:11:34.241Z,695.39
2016-12-17T02:12:33.807Z,696.36
2016-12-17T02:13:33.774Z,695.62
2016-12-17T02:14:33.660Z,695.77
2016-12-17T02:15:33.641Z,695.07
2016-12-17T02:16:33.649Z,696.64
2016-12-17T02:17:33.656Z,695.98
2016-12-17T02:18:33.672Z,695.74
2016-12-17T02:19:33.785Z,695.8
2016-12-17T02:20:33.824Z,695.59
2016-12-17T02:21:33.651Z,695.61
2016-12-17T02:22:33.705Z,695.49
2016-12-17T02:23:33.696Z,695.94
2016-12-17T02:24:33.860Z,698.43
2016-12-17T02:25:33.804Z,697.45
2016-12-17T02:26:33.761Z,697.25
2016-12-17T02:27:33.728Z,697.61
2016-12-17T02:28:33.643Z,696.69
2016-12-17T02:29:33.769Z,697.79
2016-12-17T02:30:33.766Z,698.87
2016-12-17T02:31:33.701Z,698.71
2016-12-17T02:32:33.745Z,698.39
2016-12-17T02:33:33.660Z,698.53
2016-12-17T02:34:33.728Z,697.24
2016-12-17T02:35:33.712Z,698.67
2016-12-17T02:36:33.717Z,699.67
2016-12-17T02:37:33.664Z,699.12
2016-12-17T02:38:33.677Z,700.22
2016-12-17T02:39:33.842Z,699.2
2016-12-17T02:40:33.802Z,700.34
2016-12-17T02:41:33.725Z,699.82
2016-12-17T02:42:33.656Z,700.17
2016-12-17T02:43:33.660Z,701.78
2016-12-17T02:44:33.807Z,700.35
2016-12-17T02:45:33.828Z,699.62
2016-12-17T02:46:33.738Z,699.29
2016-12-17T02:47:33.726Z,700.21
2016-12-17T02:48:33.812Z,700.35
2016-12-17T02:49:33.829Z,699.87
2016-12-17T02:50:33.711Z,700.27
2016-12-17T02:51:33.695Z,699.49
2016-12-17T02:52:33.730Z,699.33
2016-12-17T02:53:33.734Z,700.42
2016-12-17T02:54:33.844Z,701.1
2016-12-17T02:55:33.776Z,700.43
2016-12-17T02:56:33.715Z,701.34
2016-12-17T02:57:33.786Z,700.14
2016-12-17T02:58:33.800Z,699.6
2016-12-17T02:59:33.788Z,697.84
2016-12-17T03:00:33.810Z,696.66
2016-12-17T03:01:33.748Z,695.05
2016-12-17T03:02:33.737Z,694.55
2016-12-17T03:03:33.750Z,694.25
2016-12-17T03:04:33.861Z,691.97
2016-12-17T03:05:33.739Z,692.95
2016-12-17T03:06:33.768Z,691.45
2016-12-17T03:07:33.743Z,686.88
2016-12-17T03:08:33.867Z,687.3
2016-12-17T03:09:33.791Z,686.59
2016-12-17T03:10:33.859Z,684.85
2016-12-17T03:11:33.726Z,683.74
2016-12-17T03:12:33.943Z,683.17
2016-12-17T03:13:33.777Z,683.41
2016-12-17T03:14:33.888Z,683.58
2016-12-17T03:15:33.891Z,682.42
2016-12-17T03:16:33.893Z,682.42
2016-12-17T03:17:33.837Z,679.58
2016-12-17T03:18:33.825Z,679.58
2016-12-17T03:19:33.898Z,678.16
2016-12-17T03:20:33.961Z,678.94
2016-12-17T03:21:33.805Z,677.54
2016-12-17T03:22:33.859Z,677.93
2016-12-17T03:23:33.764Z,676
2016-12-17T03:24:33.827Z,675.45
2016-12-17T03:25:33.783Z,675.27
2016-12-17T03:26:33.801Z,676.24
2016-12-17T03:27:33.713Z,676.24
2016-12-17T03:28:33.715Z,676.07
2016-12-17T03:29:33.800Z,677.15
2016-12-17T03:30:33.884Z,677.68
2016-12-17T03:31:33.776Z,676.98
2016-12-17T03:32:33.886Z,678.03
2016-12-17T03:33:33.802Z,677.66
2016-12-17T03:34:33.884Z,678.55
2016-12-17T03:35:33.892Z,679.78
2016-12-17T03:36:33.799Z,680.34
2016-12-17T03:37:33.747Z,681.45
2016-12-17T03:38:33.847Z,680.56
2016-12-17T03:39:33.813Z,682.3
2016-12-17T03:40:33.827Z,682.67
2016-12-17T03:41:33.819Z,682.13
2016-12-17T03:42:33.884Z,682.43
2016-12-17T03:43:33.837Z,684.44
2016-12-17T03:44:34.185Z,685.33
2016-12-17T03:45:33.830Z,686.02
2016-12-17T03:46:33.921Z,686.88
2016-12-17T03:47:33.850Z,687.22
2016-12-17T03:48:33.829Z,687.85
2016-12-17T03:49:33.862Z,688.76
2016-12-17T03:50:33.860Z,688.93
2016-12-17T03:51:33.831Z,688.83
2016-12-17T03:52:33.842Z,690.56
2016-12-17T03:53:33.811Z,691.61
2016-12-17T03:54:33.848Z,692.56
2016-12-17T03:55:33.749Z,692.17
2016-12-17T03:56:33.887Z,693.52
2016-12-17T03:57:33.723Z,694.49
2016-12-17T03:58:33.845Z,695.54
2016-12-17T03:59:33.805Z,695.61
2016-12-17T04:00:33.859Z,695.58
2016-12-17T04:01:33.800Z,697.06
2016-12-17T04:02:33.892Z,697.75
2016-12-17T04:03:33.779Z,698.72
2016-12-17T04:04:33.927Z,698.83
2016-12-17T04:05:33.833Z,699.72
2016-12-17T04:06:33.836Z,700.09
2016-12-17T04:07:33.809Z,701.52
2016-12-17T04:08:33.858Z,701.17
2016-12-17T04:09:33.938Z,700.81
2016-12-17T04:10:33.842Z,700.41
2016-12-17T04:11:33.768Z,701.3
2016-12-17T04:12:33.816Z,702.01
2016-12-17T04:13:33.813Z,702.65
2016-12-17T04:14:34.037Z,702.28
2016-12-17T04:15:33.834Z,701.65
2016-12-17T04:16:33.905Z,702.31
2016-12-17T04:17:33.837Z,702.64
2016-12-17T04:18:33.716Z,702.92
2016-12-17T04:19:33.845Z,701.69
2016-12-17T04:20:33.857Z,703.37
2016-12-17T04:21:33.762Z,704.94
2016-12-17T04:22:33.780Z,704.75
2016-12-17T04:23:33.768Z,705.56
2016-12-17T04:24:33.961Z,704.13
2016-12-17T04:25:33.852Z,704.02
2016-12-17T04:26:33.800Z,703.79
2016-12-17T04:27:33.807Z,703.48
2016-12-17T04:28:33.845Z,703.82
2016-12-17T04:29:33.775Z,703.34
2016-12-17T04:30:33.855Z,702.57
2016-12-17T04:31:33.867Z,703.3
2016-12-17T04:32:33.920Z,700.91
2016-12-17T04:33:33.817Z,701.96
2016-12-17T04:34:33.854Z,701.7
2016-12-17T04:35:33.815Z,703.05
2016-12-17T04:36:33.855Z,702.42
2016-12-17T04:37:33.838Z,701.69
2016-12-17T04:38:33.923Z,702.22
2016-12-17T04:39:33.821Z,701.63
2016-12-17T04:40:33.986Z,700.54
2016-12-17T04:41:33.823Z,700.31
2016-12-17T04:42:33.877Z,699.22
2016-12-17T04:43:33.811Z,698.67
2016-12-17T04:44:33.891Z,697.68
2016-12-17T04:45:33.804Z,696.38
2016-12-17T04:46:33.952Z,695.55
2016-12-17T04:47:33.838Z,696.47
2016-12-17T04:48:33.854Z,692.36
2016-12-17T04:49:33.949Z,692.56
2016-12-17T04:50:33.945Z,690.58
2016-12-17T04:51:33.864Z,688.25
2016-12-17T04:52:33.903Z,686.46
2016-12-17T04:53:33.772Z,685.27
2016-12-17T04:54:34.017Z,684.54
2016-12-17T04:55:33.832Z,681.38
2016-12-17T04:56:33.910Z,678.91
2016-12-17T04:57:33.854Z,676.71
2016-12-17T04:58:33.974Z,675.17
2016-12-17T04:59:33.990Z,673.17
2016-12-17T05:00:33.932Z,671.2
2016-12-17T05:01:33.850Z,670.63
2016-12-17T05:02:33.890Z,669.21
2016-12-17T05:03:33.875Z,667.78
2016-12-17T05:04:34.070Z,667.78
2016-12-17T05:05:33.859Z,665.77
2016-12-17T05:06:34.006Z,664.03
2016-12-17T05:07:33.856Z,660.27
2016-12-17T05:08:33.909Z,660.82
2016-12-17T05:09:33.878Z,659.93
2016-12-17T05:10:33.975Z,658.69
2016-12-17T05:11:33.844Z,656.99
2016-12-17T05:12:33.911Z,653.31
2016-12-17T05:13:33.965Z,652.24
2016-12-17T05:14:33.855Z,651.32
2016-12-17T05:15:33.881Z,649.44
2016-12-17T05:16:33.837Z,648.05
2016-12-17T05:17:33.914Z,646.75
2016-12-17T05:18:33.848Z,646.79
2016-12-17T05:19:33.902Z,644.93
2016-12-17T05:20:33.859Z,641.81
2016-12-17T05:21:33.804Z,643.49
2016-12-17T05:22:34.010Z,642.54
2016-12-17T05:23:33.904Z,641.63
2016-12-17T05:24:33.960Z,637.31
2016-12-17T05:25:33.842Z,638.09
2016-12-17T05:26:33.864Z,637.32
2016-12-17T05:27:33.870Z,636.6
2016-12-17T05:28:33.924Z,633.59
2016-12-17T05:29:33.940Z,632.88
2016-12-17T05:30:33.855Z,631.91
2016-12-17T05:31:33.941Z,628.97
2016-12-17T05:32:33.965Z,628.48
2016-12-17T05:33:33.861Z,627.18
2016-12-17T05:35:52.972Z,623.22
2016-12-17T05:36:52.900Z,623.38
2016-12-17T05:37:52.930Z,622.52
2016-12-17T05:38:53.010Z,619.34
2016-12-17T05:39:53.075Z,618.52
2016-12-17T05:40:53.016Z,618.95
2016-12-17T05:41:52.915Z,617.61
2016-12-17T05:42:52.916Z,616.45
2016-12-17T05:43:53.016Z,617.25
2016-12-17T05:44:52.965Z,614.73
2016-12-17T05:45:53.074Z,614.78
2016-12-17T05:46:53.041Z,613.66
2016-12-17T05:47:53.146Z,615.09
2016-12-17T05:48:53.042Z,613.71
2016-12-17T05:49:52.984Z,614.7
2016-12-17T05:50:53.056Z,611.13
2016-12-17T05:51:53.093Z,609.13
2016-12-17T05:52:52.980Z,608.19
2016-12-17T05:53:53.005Z,605.92
2016-12-17T05:54:53.027Z,606.65
2016-12-17T05:55:52.996Z,606.32
2016-12-17T05:56:53.032Z,604.77
2016-12-17T05:57:53.008Z,604.4
2016-12-17T05:58:53.018Z,601.33
2016-12-17T05:59:53.148Z,601.11
2016-12-17T06:00:53.128Z,598.6
2016-12-17T06:01:53.027Z,598.6
2016-12-17T06:02:53.092Z,597.7
2016-12-17T06:03:53.008Z,598.11
2016-12-17T06:04:52.961Z,595.84
2016-12-17T06:05:52.980Z,595.83
2016-12-17T06:06:53.086Z,595.53
2016-12-17T06:07:53.121Z,593.25
2016-12-17T06:08:52.992Z,592.46
2016-12-17T06:09:53.081Z,592.26
2016-12-17T06:10:53.108Z,591.29
2016-12-17T06:11:53.050Z,589.76
2016-12-17T06:12:53.086Z,587.81
2016-12-17T06:13:53.026Z,588.92
2016-12-17T06:14:53.117Z,589.93
2016-12-17T06:15:53.073Z,588.62
2016-12-17T06:16:53.101Z,588.99
2016-12-17T06:17:53.024Z,588.42
2016-12-17T06:18:53.032Z,588.43
2016-12-17T06:19:53.031Z,587.7
2016-12-17T06:20:53.037Z,586.38
2016-12-17T06:21:53.226Z,586.87
2016-12-17T06:22:53.060Z,587.03
2016-12-17T06:23:53.027Z,587.08
2016-12-17T06:24:53.083Z,586.15
2016-12-17T06:25:53.151Z,587.28
2016-12-17T06:26:53.033Z,590.05
2016-12-17T06:27:53.054Z,589.3
2016-12-17T06:28:53.043Z,589.24
2016-12-17T06:29:53.028Z,591.8
2016-12-17T06:30:53.107Z,595.49
2016-12-17T06:31:52.946Z,596.99
2016-12-17T06:32:53.053Z,597.96
2016-12-17T06:33:53.174Z,598.95
2016-12-17T06:34:53.100Z,602.21
2016-12-17T06:35:53.074Z,606.83
2016-12-17T06:36:54.166Z,606.7
2016-12-17T06:37:53.147Z,609.74
2016-12-17T06:38:53.082Z,610.92
2016-12-17T06:39:53.068Z,612.27
2016-12-17T06:40:53.034Z,613.42
2016-12-17T06:41:53.078Z,615.88
2016-12-17T06:42:53.013Z,617
2016-12-17T06:43:53.037Z,619.23
2016-12-17T06:44:53.084Z,620.35
2016-12-17T06:45:53.115Z,622.59
2016-12-17T06:46:53.119Z,624.88
2016-12-17T06:47:53.077Z,628.08
2016-12-17T06:48:53.073Z,627.5
2016-12-17T06:49:53.085Z,629.56
2016-12-17T06:50:53.179Z,631.1
2016-12-17T06:51:53.105Z,633.51
2016-12-17T06:52:53.076Z,635.59
2016-12-17T06:53:53.064Z,636.51
2016-12-17T06:54:53.081Z,637.45
2016-12-17T06:55:53.065Z,638.41
2016-12-17T06:56:53.129Z,640.58
2016-12-17T06:57:53.048Z,641.33
2016-12-17T06:58:53.071Z,642.31
2016-12-17T06:59:53.105Z,644.9
2016-12-17T07:00:55.427Z,645.36
2016-12-17T07:01:53.698Z,646.04
2016-12-17T07:02:53.175Z,647.41
2016-12-17T07:03:53.926Z,647.57
2016-12-17T07:04:53.607Z,648.41
2016-12-17T07:05:53.138Z,647.82
2016-12-17T07:06:53.065Z,649.33
2016-12-17T07:07:54.252Z,650.81
2016-12-17T07:08:53.122Z,650.99
2016-12-17T07:09:53.126Z,651.13
2016-12-17T07:10:53.167Z,651.53
2016-12-17T07:11:53.083Z,652.32
2016-12-17T07:12:53.057Z,653.39
2016-12-17T07:13:54.007Z,653.36
2016-12-17T07:14:53.121Z,656.45
2016-12-17T07:15:53.078Z,656.85
2016-12-17T07:16:53.089Z,658.71
2016-12-17T07:17:53.101Z,657.93
2016-12-17T07:18:53.060Z,658.91
2016-12-17T07:19:53.182Z,659.61
2016-12-17T07:20:53.287Z,661.65
2016-12-17T07:21:53.205Z,662.36
2016-12-17T07:22:53.157Z,663.82
2016-12-17T07:23:53.077Z,664.38
2016-12-17T07:24:53.115Z,664.38
2016-12-17T07:25:53.153Z,666.46
2016-12-17T07:26:53.085Z,667.92
2016-12-17T07:27:53.078Z,669.79
2016-12-17T07:28:53.117Z,669.93
2016-12-17T07:29:53.150Z,672.48
2016-12-17T07:30:53.149Z,673.21
2016-12-17T07:31:53.177Z,674.68
2016-12-17T07:32:53.132Z,673.06
2016-12-17T07:33:53.093Z,674.95
2016-12-17T07:34:53.088Z,676.04
2016-12-17T07:35:53.154Z,677.89
2016-12-17T07:36:53.119Z,678.87
2016-12-17T07:37:53.097Z,679.35
2016-12-17T07:38:53.094Z,679.42
2016-12-17T07:39:53.100Z,678.39
2016-12-17T07:40:53.155Z,681.28
2016-12-17T07:41:53.147Z,681.47
2016-12-17T07:42:53.170Z,683.1
2016-12-17T07:43:53.143Z,684.56
2016-12-17T07:44:53.160Z,685.83
2016-12-17T07:45:53.234Z,686.51
2016-12-17T07:46:53.161Z,687.19
2016-12-17T07:47:53.156Z,686.14
2016-12-17T07:48:53.148Z,688.95
2016-12-17T07:49:53.131Z,689.47
2016-12-17T07:50:53.146Z,690.41
2016-12-17T07:51:53.076Z,690.74
2016-12-17T07:52:53.178Z,692.54
2016-12-17T07:53:53.175Z,693.03
2016-12-17T07:54:53.136Z,693.77
2016-12-17T07:55:53.357Z,693.69
2016-12-17T07:56:53.198Z,693.77
2016-12-17T07:57:53.114Z,692.55
2016-12-17T07:58:53.177Z,693.26
2016-12-17T07:59:53.191Z,694.55
2016-12-17T08:00:53.311Z,696.34
2016-12-17T08:01:53.239Z,695.5
2016-12-17T08:02:53.366Z,696.3
2016-12-17T08:03:53.259Z,697.93
2016-12-17T08:04:53.153Z,697.9
2016-12-17T08:05:53.168Z,698.56
2016-12-17T08:06:53.237Z,700.71
2016-12-17T08:07:53.240Z,702.1
2016-12-17T08:08:53.447Z,704.09
2016-12-17T08:09:53.181Z,702.21
2016-12-17T08:10:53.175Z,702.88
2016-12-17T08:11:53.254Z,704.28
2016-12-17T08:12:53.173Z,706.34
2016-12-17T08:13:53.219Z,707.05
2016-12-17T08:14:53.270Z,708.11
2016-12-17T08:15:53.320Z,707.23
2016-12-17T08:16:53.276Z,708.28
2016-12-17T08:17:53.245Z,708.77
2016-12-17T08:18:53.286Z,709.87
2016-12-17T08:19:53.191Z,711.56
2016-12-17T08:20:53.407Z,712.62
2016-12-17T08:21:53.284Z,713.19
2016-12-17T08:22:53.213Z,715.83
2016-12-17T08:23:53.257Z,714.99
2016-12-17T08:24:53.398Z,718.14
2016-12-17T08:25:53.194Z,716.24
2016-12-17T08:26:53.201Z,718.74
2016-12-17T08:27:53.154Z,718.92
2016-12-17T08:28:53.223Z,719.65
2016-12-17T08:29:53.204Z,720.36
2016-12-17T08:30:53.217Z,723.67
2016-12-17T08:31:53.202Z,724.87
2016-12-17T08:32:53.213Z,724.83
2016-12-17T08:33:53.246Z,726.96
2016-12-17T08:34:53.255Z,725.74
2016-12-17T08:35:53.267Z,728.45
2016-12-17T08:36:53.236Z,729.51
2016-12-17T08:37:53.229Z,731.06
2016-12-17T08:38:53.240Z,733.68
2016-12-17T08:39:53.242Z,735.71
2016-12-17T08:40:53.224Z,737.2
2016-12-17T08:41:53.201Z,739.11
2016-12-17T08:42:53.244Z,740.49
2016-12-17T08:43:53.283Z,741.34
2016-12-17T08:44:53.223Z,742.32
2016-12-17T08:45:53.296Z,743.54
2016-12-17T08:46:53.417Z,743.67
2016-12-17T08:47:53.285Z,745.58
2016-12-17T08:48:53.266Z,746.73
2016-12-17T08:49:53.256Z,746.62
2016-12-17T08:50:53.394Z,747.71
2016-12-17T08:51:53.244Z,748.71
2016-12-17T08:52:53.234Z,751.45
2016-12-17T08:53:53.308Z,748.45
2016-12-17T08:54:53.228Z,749.08
2016-12-17T08:55:53.278Z,751.81
2016-12-17T08:56:53.300Z,753.43
2016-12-17T08:57:53.277Z,755.26
2016-12-17T08:58:53.453Z,756.27
2016-12-17T08:59:53.230Z,756.73
2016-12-17T09:00:53.247Z,757.83
2016-12-17T09:01:53.237Z,759.98
2016-12-17T09:02:53.236Z,760.11
2016-12-17T09:03:53.294Z,759.68
2016-12-17T09:04:53.266Z,756.56
2016-12-17T09:05:53.286Z,756.59
2016-12-17T09:06:53.274Z,759.02
2016-12-17T09:07:53.272Z,759.68
2016-12-17T09:08:53.284Z,762.17
2016-12-17T09:09:53.245Z,764.8
2016-12-17T09:10:53.208Z,766.02
2016-12-17T09:11:53.227Z,768.05
2016-12-17T09:12:53.231Z,767.85
2016-12-17T09:13:53.170Z,768.19
2016-12-17T09:14:53.211Z,769.73
2016-12-17T09:15:53.263Z,774.15
2016-12-17T09:16:53.179Z,774.65
2016-12-17T09:17:53.220Z,774.97
2016-12-17T09:18:53.188Z,775.95
2016-12-17T09:19:53.253Z,776.65
2016-12-17T09:20:53.294Z,781.05
2016-12-17T09:21:53.313Z,782.34
2016-12-17T09:22:53.326Z,785.43
2016-12-17T09:23:53.253Z,787.23
2016-12-17T09:24:53.287Z,784.19
2016-12-17T09:25:53.370Z,785.19
2016-12-17T09:26:53.212Z,787.8
2016-12-17T09:27:53.276Z,787.49
2016-12-17T09:28:53.252Z,790.72
2016-12-17T09:29:53.312Z,790.75
2016-12-17T09:30:53.453Z,791.81
2016-12-17T09:31:53.217Z,792.66
2016-12-17T09:32:53.324Z,793.45
2016-12-17T09:33:53.475Z,796.96
2016-12-17T09:34:53.428Z,798.84
2016-12-17T09:35:53.354Z,803.42
2016-12-17T09:36:53.395Z,804.36
2016-12-17T09:37:53.294Z,807.84
2016-12-17T09:38:53.482Z,809.76
2016-12-17T09:39:53.364Z,814.88
2016-12-17T09:40:53.489Z,819.35
2016-12-17T09:41:53.289Z,816.13
2016-12-17T09:42:53.346Z,820.99
2016-12-17T09:43:53.291Z,822.84
2016-12-17T09:44:53.338Z,827.25
2016-12-17T09:45:53.422Z,832.13
2016-12-17T09:46:53.388Z,841.51
2016-12-17T09:47:53.269Z,847.82
2016-12-17T09:48:53.285Z,853.14
2016-12-17T09:49:53.282Z,861.82
2016-12-17T09:50:53.297Z,867.55
2016-12-17T09:51:53.250Z,873.02
2016-12-17T09:52:53.295Z,873.72
2016-12-17T09:53:53.294Z,880.13
2016-12-17T09:54:53.316Z,891.24
2016-12-17T09:55:53.373Z,897.89
2016-12-17T09:56:53.278Z,911.64
2016-12-17T09:57:54.066Z,927.64
2016-12-17T09:58:53.202Z,940.08
2016-12-17T09:59:53.480Z,949.47
2016-12-17T10:00:53.328Z,963.14
2016-12-17T10:01:53.278Z,962.59
2016-12-17T10:02:53.339Z,970.89
2016-12-17T10:03:53.272Z,977.35
2016-12-17T10:04:53.194Z,980.96
2016-12-17T10:05:53.437Z,979.75
2016-12-17T10:06:53.302Z,982.24
2016-12-17T10:07:53.301Z,982.17
2016-12-17T10:08:53.260Z,976.63
2016-12-17T10:09:53.292Z,968.94
2016-12-17T10:10:53.363Z,970.34
2016-12-17T10:11:53.361Z,971.25
2016-12-17T10:12:53.338Z,969.72
2016-12-17T10:13:53.422Z,965.25
2016-12-17T10:14:53.287Z,963.46
2016-12-17T10:15:53.349Z,958.72
2016-12-17T10:16:53.279Z,951.08
2016-12-17T10:17:53.270Z,954.61
2016-12-17T10:18:53.548Z,954.26
2016-12-17T10:19:53.321Z,954.34
2016-12-17T10:20:53.316Z,956.52
2016-12-17T10:21:53.333Z,951.35
2016-12-17T10:22:53.301Z,948.44
2016-12-17T10:23:53.312Z,936.63
2016-12-17T10:24:53.294Z,936.88
2016-12-17T10:25:53.356Z,942.45
2016-12-17T10:26:53.320Z,941.95
2016-12-17T10:27:53.280Z,943.57
2016-12-17T10:28:53.325Z,946.02
2016-12-17T10:29:53.337Z,947.27
2016-12-17T10:30:53.318Z,948.9
2016-12-17T10:31:53.335Z,947.15
2016-12-17T10:32:53.310Z,941.85
2016-12-17T10:33:53.351Z,944.03
2016-12-17T10:34:53.283Z,948.13
2016-12-17T10:35:53.339Z,945.9
2016-12-17T10:36:53.285Z,950.78
2016-12-17T10:37:53.385Z,949.89
2016-12-17T10:38:53.325Z,951.07
2016-12-17T10:39:53.350Z,953.13
2016-12-17T10:40:53.378Z,952.79
2016-12-17T10:41:53.315Z,946.64
2016-12-17T10:42:53.357Z,951.79
2016-12-17T10:43:53.277Z,953.79
2016-12-17T10:44:53.376Z,956.95
2016-12-17T10:45:53.341Z,959.36
2016-12-17T10:46:53.290Z,962.68
2016-12-17T10:47:53.296Z,963.94
2016-12-17T10:48:53.443Z,960.53
2016-12-17T10:49:53.324Z,961.94
2016-12-17T10:50:53.341Z,965.97
2016-12-17T10:51:53.341Z,971.66
2016-12-17T10:52:53.278Z,963.57
2016-12-17T10:53:53.317Z,961.26
2016-12-17T10:54:53.329Z,958.04
2016-12-17T10:55:53.367Z,959.04
2016-12-17T10:56:53.322Z,963.82
2016-12-17T10:57:53.343Z,957.3
2016-12-17T10:58:53.311Z,958.92
2016-12-17T10:59:53.332Z,962.06
2016-12-17T11:00:53.481Z,965.54
2016-12-17T11:01:53.354Z,967.41
2016-12-17T11:02:53.394Z,959.42
2016-12-17T11:03:53.339Z,958.58
2016-12-17T11:04:53.289Z,965.06
2016-12-17T11:05:53.328Z,964.8
2016-12-17T11:06:53.319Z,968.1
2016-12-17T11:07:53.442Z,973.34
2016-12-17T11:08:53.383Z,979.03
2016-12-17T11:09:53.406Z,979.82
2016-12-17T11:10:53.459Z,987.47
2016-12-17T11:11:53.325Z,994.41
2016-12-17T11:12:53.326Z,1000.47
2016-12-17T11:13:54.382Z,997.67
2016-12-17T11:14:53.393Z,1000.19
2016-12-17T11:15:53.328Z,1001.9
2016-12-17T11:16:53.364Z,1007.51
2016-12-17T11:17:53.317Z,1004.63
2016-12-17T11:18:53.372Z,1006.17
2016-12-17T11:19:53.322Z,1006.7
2016-12-17T11:20:53.387Z,1006.48
2016-12-17T11:21:53.305Z,1012.68
2016-12-17T11:22:53.408Z,1009.96
2016-12-17T11:23:53.419Z,1009.95
2016-12-17T11:24:53.302Z,1017.43
2016-12-17T11:25:53.389Z,1020.56
2016-12-17T11:26:53.326Z,1024.31
2016-12-17T11:27:53.354Z,1021.39
2016-12-17T11:28:53.382Z,1022.53
2016-12-17T11:29:53.398Z,1011.18
2016-12-17T11:30:53.348Z,1017.42
2016-12-17T11:31:53.362Z,1018.93
2016-12-17T11:32:53.377Z,1021.54
2016-12-17T11:33:53.439Z,1023.63
2016-12-17T11:34:53.398Z,1020.39
2016-12-17T11:35:53.403Z,1026.59
2016-12-17T11:36:53.396Z,1033.78
2016-12-17T11:37:53.429Z,1032.23
2016-12-17T11:38:53.435Z,1028.56
2016-12-17T11:39:53.434Z,1029.08
2016-12-17T11:40:53.607Z,1029.23
2016-12-17T11:41:53.428Z,1028.32
2016-12-17T11:42:53.399Z,1026.88
2016-12-17T11:43:53.383Z,1022.55
2016-12-17T11:44:53.361Z,1024.11
2016-12-17T11:45:53.425Z,1013.17
2016-12-17T11:46:53.396Z,1020.78
2016-12-17T11:47:53.412Z,1012.75
2016-12-17T11:48:53.356Z,1002.07
2016-12-17T11:49:53.464Z,1000.23
2016-12-17T11:50:53.570Z,1003.09
2016-12-17T11:51:53.437Z,995.05
2016-12-17T11:52:53.724Z,997.89
2016-12-17T11:53:53.452Z,995.7
2016-12-17T11:54:53.437Z,992.85
2016-12-17T11:55:53.445Z,986.65
2016-12-17T11:56:53.411Z,980.78
2016-12-17T11:57:53.489Z,979.5
2016-12-17T11:58:53.445Z,983.94
2016-12-17T11:59:53.402Z,981.68
2016-12-17T12:00:53.582Z,986.12
2016-12-17T12:01:53.420Z,987.38
2016-12-17T12:02:53.467Z,980.32
2016-12-17T12:03:53.385Z,977.59
2016-12-17T12:04:53.377Z,978.54
2016-12-17T12:05:53.488Z,973.96
2016-12-17T12:06:53.510Z,968.3
2016-12-17T12:07:53.502Z,966.41
2016-12-17T12:08:53.395Z,962.91
2016-12-17T12:09:53.455Z,956.43
2016-12-17T12:10:53.453Z,956.47
2016-12-17T12:11:53.465Z,957.91
2016-12-17T12:12:53.537Z,951.42
2016-12-17T12:13:53.440Z,947.12
2016-12-17T12:14:53.500Z,951.5
2016-12-17T12:15:53.499Z,948.03
2016-12-17T12:16:53.369Z,954.9
2016-12-17T12:18:03.393Z,962.05
2016-12-17T12:18:53.558Z,960.22
2016-12-17T12:23:23.864Z,957.23
2016-12-17T12:24:23.867Z,958.82
2016-12-17T12:25:23.880Z,956.65
2016-12-17T12:26:23.884Z,953.01
2016-12-17T12:27:23.819Z,949.1
2016-12-17T12:28:23.801Z,947.55
2016-12-17T12:29:23.851Z,947.33
2016-12-17T12:30:23.818Z,948.96
2016-12-17T12:31:23.875Z,942.06
2016-12-17T12:32:23.760Z,938.5
2016-12-17T12:33:23.925Z,933.57
2016-12-17T12:34:23.835Z,929.48